METAR Data
IDs: Format: Raw Decoded Include TAF

Data at: 1640 UTC 19 Sep 2018

KTLH 191553Z 00000KT 10SM FEW030 FEW250 31/23 A2999 RMK AO2 SLP153 TCU DSNT S-SW T03110228
KTLH 191453Z 34004KT 10SM FEW030 FEW250 30/23 A2999 RMK AO2 SLP154 CB DSNT S AND SW T03000233 53010
KTLH 191353Z 30006KT 10SM FEW030 FEW250 28/23 A2998 RMK AO2 SLP150 CB DSNT S AND SW T02780233
KTLH 191253Z 00000KT 10SM FEW030 FEW250 24/22 A2997 RMK AO2 SLP148 CB DSNT SE-S T02440222
KTLH 191153Z 27003KT 10SM BCFG FEW030 FEW250 22/21 A2996 RMK AO2 SLP144 CB DSNT SE-S 70008 T02220211 10228 20217 53011
KTLH 191053Z 00000KT 10SM FEW030 FEW250 22/21 A2995 RMK AO2 SLP140 OCNL LTGIC DSNT S CB DSNT SE-S T02220211
KTLH 190953Z 00000KT 10SM FEW250 22/22 A2993 RMK AO2 SLP134 T02220217 $
KTLH 190853Z AUTO 00000KT 10SM CLR 22/21 A2993 RMK AO2 SLP133 T02220211 55000 $
KTLH 190753Z AUTO 00000KT 10SM CLR 22/22 A2992 RMK AO2 SLP132 T02220217 $
KTLH 190653Z AUTO 22003KT 10SM CLR 23/22 A2992 RMK AO2 SLP130 T02280217 $
KTLH 190553Z AUTO 00000KT 10SM CLR 23/22 A2993 RMK AO2 SLP133 60000 T02280217 10256 20228 56008 $
KTLH 190453Z AUTO 00000KT 10SM CLR 23/22 A2994 RMK AO2 SLP136 T02280222 403390222 $
KTLH 190353Z AUTO 14003KT 10SM CLR 23/22 A2994 RMK AO2 SLP137 T02330217
KTLH 190253Z 33003KT 10SM FEW250 23/22 A2995 RMK AO2 SLP141 LAST 60000 T02330217 53014
KTLH 190153Z 31005KT 10SM FEW100 BKN250 24/22 A2994 RMK AO2 SLP136 T02390217
KTLH 190053Z 00000KT 10SM FEW100 BKN250 24/22 A2992 RMK AO2 RAE09 TSE05 SLP130 OCNL LTG DSNT SW CB DSNT SW P0000 T02390222
KTLH 190011Z 23005KT 10SM FEW070 BKN100 BKN250 24/22 A2991 RMK AO2 LTG DSNT SW RAE09 TSE05 OCNL LTG DSNT SW CB DSNT SW P0000 T02440222
KTLH 182353Z 28006KT 10SM -TSRA SCT040CB BKN250 26/22 A2991 RMK AO2 LTG DSNT SW RAB32 SLP127 OCNL LTGICCG S-SW TS S-SW STNRY P0000 60008 T02560222 10339 20256 51010
KTLH 182253Z 23008KT 10SM TS SCT040CB BKN250 27/22 A2991 RMK AO2 LTG DSNT SW AND W SLP125 FRQS LTGICCCCG S-W TS S-W STNRY T02720222
KTLH 182153Z 07005KT 10SM TS BKN040CB BKN250 29/24 A2989 RMK AO2 LTG DSNT W AND NW RAB21E52 TSB11E50B52 SLP119 OCNL LTGCG SW TS SW MOV N CB E-OHD-W-NW MOV N P0008 T02940239
KTLH 182112Z VRB05KT 10SM TS SCT040CB 32/24 A2988 RMK AO2 LTG DSNT W TSB11 OCNL LTGCG W TS W STNRY CB OHD STNRY VCSH W T03170244
KTLH 182053Z 16007KT 10SM SCT038TCU 33/24 A2988 RMK AO2 LTG DSNT W SLP116 TCU OHD-W VCSH W T03280239 56023
KTLH 181953Z 00000KT 10SM SCT035 33/22 A2989 RMK AO2 SLP119 T03280217
KTLH 181853Z 00000KT 10SM SCT035 33/22 A2992 RMK AO2 SLP129 T03280222
KTLH 181753Z VRB03KT 10SM SCT031 SCT200 32/23 A2995 RMK AO2 SLP139 T03220228 10328 20228 58015
KTLH 181653Z VRB03KT 10SM SCT029 SCT200 32/24 A2997 RMK AO2 LTG DSNT S SLP147 CB DSNT S T03220244
KTLH 181553Z VRB03KT 10SM SCT028 SCT200 31/24 A2998 RMK AO2 SLP152 T03110244
KTLH 181453Z 26003KT 10SM SCT014 SCT200 30/24 A2999 RMK AO2 SLP154 T03000239 50003
KTLH 181353Z 00000KT 10SM FEW030 FEW200 28/26 A2999 RMK AO2 SLP155 CB DSNT SE-SW T02780256
KTLH 181253Z 00000KT 10SM BCFG SCT002 SCT030 SCT250 24/23 A2999 RMK AO2 SLP155 CB DSNT SE T02440233
KTLH 181208Z 00000KT 10SM BCFG SCT002 SCT030 SCT250 23/22 A2998 RMK AO2 CB DSNT SE AND SW T02280222
KTLH 181153Z 00000KT 10SM BCFG FEW030 FEW250 22/22 A2998 RMK AO2 SLP151 CB DSNT SE AND SW 70074 T02220222 10233 20222 51008
KTLH 181053Z 00000KT 10SM BCFG FEW030 FEW250 23/22 A2997 RMK AO2 SLP149 OCNL LTGIC SW CB DSNT SE AND SW T02280217
KTLH 180953Z 00000KT 10SM BCFG FEW250 23/22 A2996 RMK AO2 SLP146 T02280222 $
KTLH 180853Z AUTO 00000KT 10SM CLR 23/22 A2996 RMK AO2 SLP143 T02280222 56006 $
KTLH 180753Z AUTO 00000KT 10SM CLR 23/22 A2996 RMK AO2 SLP144 T02280222 $
KTLH 180653Z AUTO 00000KT 10SM CLR 23/22 A2996 RMK AO2 SLP146 T02280222
KTLH 180553Z AUTO 00000KT 10SM CLR 23/23 A2997 RMK AO2 SLP149 T02330228 10244 20233 51004
KTLH 180453Z AUTO 00000KT 10SM CLR 24/23 A2997 RMK AO2 SLP149 T02390233 403390233